Aviation Digital Data Service (ADDS)

Output produced by TAFs form (1532 UTC 18 June 2018)
found at http://www.aviationweather.gov/adds/tafs/
 
KGNV 181453Z 08004KT 10SM CLR 31/23 A3017 RMK AO2 SLP212 T03060228 51000
KGNV 181159Z 1812/1912 VRB02KT 5SM BR SCT250 
     FM181300 VRB03KT P6SM SCT015 SCT250 
     FM182000 07007KT P6SM VCTS BKN040CB 
     FM190000 10004KT P6SM VCSH SCT050 BKN150 BKN250 
     FM190400 00000KT P6SM FEW150 SCT250